sensor_id;sensor_type;location;lat;lon;timestamp;pressure;altitude;pressure_sealevel;temperature;humidity
29371;BME280;16357;52.188;7.838;2022-07-22T00:02:11;101270.94;;;20.54;63.41
29371;BME280;16357;52.188;7.838;2022-07-22T00:04:37;101269.44;;;20.51;63.63
29371;BME280;16357;52.188;7.838;2022-07-22T00:07:04;101278.66;;;20.50;63.42
29371;BME280;16357;52.188;7.838;2022-07-22T00:09:31;101273.63;;;20.47;63.13
29371;BME280;16357;52.188;7.838;2022-07-22T00:11:58;101282.22;;;20.44;63.08
29371;BME280;16357;52.188;7.838;2022-07-22T00:14:25;101285.38;;;20.41;62.71
29371;BME280;16357;52.188;7.838;2022-07-22T00:16:52;101286.81;;;20.37;62.91
29371;BME280;16357;52.188;7.838;2022-07-22T00:19:18;101286.41;;;20.33;62.90
29371;BME280;16357;52.188;7.838;2022-07-22T00:21:45;101291.41;;;20.30;63.05
29371;BME280;16357;52.188;7.838;2022-07-22T00:24:11;101291.00;;;20.26;63.20
29371;BME280;16357;52.188;7.838;2022-07-22T00:26:38;101290.59;;;20.23;62.99
29371;BME280;16357;52.188;7.838;2022-07-22T00:29:04;101299.19;;;20.20;63.14
29371;BME280;16357;52.188;7.838;2022-07-22T00:31:31;101291.38;;;20.16;63.12
29371;BME280;16357;52.188;7.838;2022-07-22T00:33:59;101295.59;;;20.12;63.29
29371;BME280;16357;52.188;7.838;2022-07-22T00:36:28;101296.84;;;20.10;63.61
29371;BME280;16357;52.188;7.838;2022-07-22T00:38:56;101298.91;;;20.08;63.67
29371;BME280;16357;52.188;7.838;2022-07-22T00:41:23;101298.50;;;20.04;63.77
29371;BME280;16357;52.188;7.838;2022-07-22T00:44:02;101300.41;;;20.04;63.52
29371;BME280;16357;52.188;7.838;2022-07-22T00:46:30;101299.94;;;20.00;63.80
29371;BME280;16357;52.188;7.838;2022-07-22T00:48:57;101288.81;;;19.95;63.89
29371;BME280;16357;52.188;7.838;2022-07-22T00:51:26;101298.47;;;19.91;63.99
29371;BME280;16357;52.188;7.838;2022-07-22T00:53:54;101307.88;;;19.88;63.80
29371;BME280;16357;52.188;7.838;2022-07-22T00:56:25;101297.41;;;19.85;63.64
29371;BME280;16357;52.188;7.838;2022-07-22T00:58:54;101301.38;;;19.83;63.95
29371;BME280;16357;52.188;7.838;2022-07-22T01:01:21;101295.28;;;19.81;64.17
29371;BME280;16357;52.188;7.838;2022-07-22T01:03:48;101293.81;;;19.78;64.32
29371;BME280;16357;52.188;7.838;2022-07-22T01:06:17;101297.38;;;19.79;64.44
29371;BME280;16357;52.188;7.838;2022-07-22T01:08:44;101299.03;;;19.80;64.75
29371;BME280;16357;52.188;7.838;2022-07-22T01:11:16;101302.19;;;19.83;64.35
29371;BME280;16357;52.188;7.838;2022-07-22T01:13:44;101297.59;;;19.84;64.17
29371;BME280;16357;52.188;7.838;2022-07-22T01:16:13;101292.78;;;19.86;64.35
29371;BME280;16357;52.188;7.838;2022-07-22T01:18:40;101309.75;;;19.88;64.16
29371;BME280;16357;52.188;7.838;2022-07-22T01:21:08;101296.75;;;19.90;64.15
29371;BME280;16357;52.188;7.838;2022-07-22T01:23:35;101301.19;;;19.91;63.94
29371;BME280;16357;52.188;7.838;2022-07-22T01:26:03;101308.50;;;19.90;63.79
29371;BME280;16357;52.188;7.838;2022-07-22T01:28:31;101295.09;;;19.89;63.79
29371;BME280;16357;52.188;7.838;2022-07-22T01:30:58;101307.66;;;19.90;63.50
29371;BME280;16357;52.188;7.838;2022-07-22T01:33:25;101298.84;;;19.88;63.70
29371;BME280;16357;52.188;7.838;2022-07-22T01:35:51;101302.63;;;19.87;63.52
29371;BME280;16357;52.188;7.838;2022-07-22T01:38:19;101309.31;;;19.84;63.57
29371;BME280;16357;52.188;7.838;2022-07-22T01:40:46;101301.97;;;19.85;63.63
29371;BME280;16357;52.188;7.838;2022-07-22T01:43:13;101311.00;;;19.85;63.74
29371;BME280;16357;52.188;7.838;2022-07-22T01:45:45;101310.16;;;19.85;63.36
29371;BME280;16357;52.188;7.838;2022-07-22T01:48:11;101308.47;;;19.84;63.39
29371;BME280;16357;52.188;7.838;2022-07-22T01:50:39;101315.00;;;19.83;63.31
29371;BME280;16357;52.188;7.838;2022-07-22T01:53:06;101312.66;;;19.80;63.40
29371;BME280;16357;52.188;7.838;2022-07-22T01:55:33;101314.94;;;19.76;63.48
29371;BME280;16357;52.188;7.838;2022-07-22T01:58:00;101317.84;;;19.74;63.51
29371;BME280;16357;52.188;7.838;2022-07-22T02:00:27;101321.00;;;19.71;63.64
29371;BME280;16357;52.188;7.838;2022-07-22T02:02:53;101306.72;;;19.69;63.47
29371;BME280;16357;52.188;7.838;2022-07-22T02:05:20;101309.69;;;19.68;63.38
29371;BME280;16357;52.188;7.838;2022-07-22T02:07:46;101315.31;;;19.66;63.40
29371;BME280;16357;52.188;7.838;2022-07-22T02:10:13;101311.94;;;19.64;63.07
29371;BME280;16357;52.188;7.838;2022-07-22T02:12:40;101310.47;;;19.62;63.32
29371;BME280;16357;52.188;7.838;2022-07-22T02:15:06;101318.81;;;19.60;63.25
29371;BME280;16357;52.188;7.838;2022-07-22T02:17:35;101307.28;;;19.58;63.10
29371;BME280;16357;52.188;7.838;2022-07-22T02:20:02;101317.53;;;19.56;63.11
29371;BME280;16357;52.188;7.838;2022-07-22T02:22:30;101313.13;;;19.55;63.16
29371;BME280;16357;52.188;7.838;2022-07-22T02:24:56;101315.22;;;19.53;63.13
29371;BME280;16357;52.188;7.838;2022-07-22T02:27:23;101320.03;;;19.51;62.95
29371;BME280;16357;52.188;7.838;2022-07-22T02:29:49;101316.69;;;19.49;63.35
29371;BME280;16357;52.188;7.838;2022-07-22T02:32:15;101316.03;;;19.47;63.09
29371;BME280;16357;52.188;7.838;2022-07-22T02:34:42;101308.28;;;19.44;63.31
29371;BME280;16357;52.188;7.838;2022-07-22T02:37:09;101312.00;;;19.43;63.32
29371;BME280;16357;52.188;7.838;2022-07-22T02:39:36;101311.41;;;19.41;63.09
29371;BME280;16357;52.188;7.838;2022-07-22T02:42:03;101308.69;;;19.41;63.24
29371;BME280;16357;52.188;7.838;2022-07-22T02:44:29;101310.34;;;19.42;63.44
29371;BME280;16357;52.188;7.838;2022-07-22T02:46:56;101314.13;;;19.41;63.36
29371;BME280;16357;52.188;7.838;2022-07-22T02:49:22;101314.13;;;19.41;63.21
29371;BME280;16357;52.188;7.838;2022-07-22T02:51:48;101317.69;;;19.41;63.35
29371;BME280;16357;52.188;7.838;2022-07-22T02:54:15;101313.25;;;19.40;63.41
29371;BME280;16357;52.188;7.838;2022-07-22T02:56:41;101306.97;;;19.40;63.70
29371;BME280;16357;52.188;7.838;2022-07-22T02:59:08;101310.53;;;19.40;63.47
29371;BME280;16357;52.188;7.838;2022-07-22T03:01:34;101312.22;;;19.41;63.45
29371;BME280;16357;52.188;7.838;2022-07-22T03:04:01;101312.00;;;19.43;63.25
29371;BME280;16357;52.188;7.838;2022-07-22T03:06:28;101317.47;;;19.43;63.44
29371;BME280;16357;52.188;7.838;2022-07-22T03:08:54;101322.72;;;19.44;63.33
29371;BME280;16357;52.188;7.838;2022-07-22T03:11:21;101316.22;;;19.45;63.25
29371;BME280;16357;52.188;7.838;2022-07-22T03:13:48;101326.91;;;19.47;63.09
29371;BME280;16357;52.188;7.838;2022-07-22T03:16:14;101326.91;;;19.47;63.33
29371;BME280;16357;52.188;7.838;2022-07-22T03:18:41;101326.72;;;19.48;63.19
29371;BME280;16357;52.188;7.838;2022-07-22T03:21:08;101334.03;;;19.48;62.91
29371;BME280;16357;52.188;7.838;2022-07-22T03:23:34;101324.38;;;19.45;63.14
29371;BME280;16357;52.188;7.838;2022-07-22T03:26:01;101321.88;;;19.44;62.93
29371;BME280;16357;52.188;7.838;2022-07-22T03:28:27;101327.72;;;19.41;63.20
29371;BME280;16357;52.188;7.838;2022-07-22T03:30:54;101333.16;;;19.41;63.46
29371;BME280;16357;52.188;7.838;2022-07-22T03:33:20;101329.81;;;19.39;63.38
29371;BME280;16357;52.188;7.838;2022-07-22T03:35:47;101328.75;;;19.40;63.45
29371;BME280;16357;52.188;7.838;2022-07-22T03:38:13;101325.38;;;19.38;63.44
29371;BME280;16357;52.188;7.838;2022-07-22T03:40:40;101327.09;;;19.39;63.37
29371;BME280;16357;52.188;7.838;2022-07-22T03:43:06;101329.81;;;19.39;63.50
29371;BME280;16357;52.188;7.838;2022-07-22T03:45:33;101326.03;;;19.40;63.65
29371;BME280;16357;52.188;7.838;2022-07-22T03:47:59;101326.03;;;19.40;63.39
29371;BME280;16357;52.188;7.838;2022-07-22T03:50:26;101320.81;;;19.38;63.30
29371;BME280;16357;52.188;7.838;2022-07-22T03:52:52;101324.53;;;19.37;63.13
29371;BME280;16357;52.188;7.838;2022-07-22T03:55:19;101326.63;;;19.35;63.53
29371;BME280;16357;52.188;7.838;2022-07-22T03:57:45;101335.84;;;19.34;63.62
29371;BME280;16357;52.188;7.838;2022-07-22T04:00:12;101329.97;;;19.30;63.81
29371;BME280;16357;52.188;7.838;2022-07-22T04:02:38;101329.31;;;19.28;63.11
29371;BME280;16357;52.188;7.838;2022-07-22T04:05:05;101332.84;;;19.22;62.85
29371;BME280;16357;52.188;7.838;2022-07-22T04:07:32;101336.34;;;19.16;62.75
29371;BME280;16357;52.188;7.838;2022-07-22T04:09:59;101342.75;;;19.08;62.62
29371;BME280;16357;52.188;7.838;2022-07-22T04:12:35;101343.56;;;19.02;62.63
29371;BME280;16357;52.188;7.838;2022-07-22T04:15:04;101337.22;;;18.95;62.67
29371;BME280;16357;52.188;7.838;2022-07-22T04:17:31;101338.84;;;18.90;62.97
29371;BME280;16357;52.188;7.838;2022-07-22T04:19:58;101346.75;;;18.84;63.14
29371;BME280;16357;52.188;7.838;2022-07-22T04:22:26;101346.97;;;18.83;63.17
29371;BME280;16357;52.188;7.838;2022-07-22T04:24:53;101348.22;;;18.80;63.09
29371;BME280;16357;52.188;7.838;2022-07-22T04:27:20;101344.84;;;18.78;63.23
29371;BME280;16357;52.188;7.838;2022-07-22T04:29:47;101350.28;;;18.78;63.11
29371;BME280;16357;52.188;7.838;2022-07-22T04:32:13;101353.81;;;18.79;63.45
29371;BME280;16357;52.188;7.838;2022-07-22T04:34:39;101357.19;;;18.81;63.63
29371;BME280;16357;52.188;7.838;2022-07-22T04:37:06;101354.47;;;18.81;63.35
29371;BME280;16357;52.188;7.838;2022-07-22T04:39:33;101354.91;;;18.84;63.43
29371;BME280;16357;52.188;7.838;2022-07-22T04:41:59;101354.53;;;18.88;63.23
29371;BME280;16357;52.188;7.838;2022-07-22T04:44:26;101355.19;;;18.90;63.19
29371;BME280;16357;52.188;7.838;2022-07-22T04:46:52;101346.84;;;18.91;63.23
29371;BME280;16357;52.188;7.838;2022-07-22T04:49:19;101352.06;;;18.93;63.18
29371;BME280;16357;52.188;7.838;2022-07-22T04:51:45;101356.25;;;18.95;63.21
29371;BME280;16357;52.188;7.838;2022-07-22T04:54:12;101340.41;;;18.99;63.48
29371;BME280;16357;52.188;7.838;2022-07-22T04:56:40;101345.44;;;19.02;63.30
29371;BME280;16357;52.188;7.838;2022-07-22T04:59:07;101350.31;;;19.06;63.31
29371;BME280;16357;52.188;7.838;2022-07-22T05:01:33;101352.41;;;19.11;63.19
29371;BME280;16357;52.188;7.838;2022-07-22T05:04:00;101351.00;;;19.15;63.34
29371;BME280;16357;52.188;7.838;2022-07-22T05:06:28;101346.81;;;19.19;63.40
29371;BME280;16357;52.188;7.838;2022-07-22T05:08:55;101348.75;;;19.25;63.22
29371;BME280;16357;52.188;7.838;2022-07-22T05:11:22;101351.91;;;19.29;62.77
29371;BME280;16357;52.188;7.838;2022-07-22T05:13:48;101353.00;;;19.35;62.85
29371;BME280;16357;52.188;7.838;2022-07-22T05:16:15;101355.97;;;19.40;62.37
29371;BME280;16357;52.188;7.838;2022-07-22T05:18:41;101349.28;;;19.42;62.48
29371;BME280;16357;52.188;7.838;2022-07-22T05:21:08;101357.03;;;19.45;62.70
29371;BME280;16357;52.188;7.838;2022-07-22T05:23:34;101347.63;;;19.48;62.23
29371;BME280;16357;52.188;7.838;2022-07-22T05:26:01;101351.84;;;19.50;62.05
29371;BME280;16357;52.188;7.838;2022-07-22T05:28:27;101354.38;;;19.52;62.15
29371;BME280;16357;52.188;7.838;2022-07-22T05:30:54;101354.16;;;19.53;62.08
29371;BME280;16357;52.188;7.838;2022-07-22T05:33:20;101352.06;;;19.56;62.05
29371;BME280;16357;52.188;7.838;2022-07-22T05:35:47;101348.94;;;19.59;61.97
29371;BME280;16357;52.188;7.838;2022-07-22T05:38:13;101354.00;;;19.62;61.65
29371;BME280;16357;52.188;7.838;2022-07-22T05:40:40;101359.06;;;19.65;61.68
29371;BME280;16357;52.188;7.838;2022-07-22T05:43:07;101361.19;;;19.69;61.47
29371;BME280;16357;52.188;7.838;2022-07-22T05:45:33;101365.19;;;19.73;61.58
29371;BME280;16357;52.188;7.838;2022-07-22T05:48:00;101358.50;;;19.76;61.71
29371;BME280;16357;52.188;7.838;2022-07-22T05:50:27;101365.44;;;19.79;61.48
29371;BME280;16357;52.188;7.838;2022-07-22T05:52:54;101370.06;;;19.85;61.51
29371;BME280;16357;52.188;7.838;2022-07-22T05:55:20;101366.75;;;19.89;61.38
29371;BME280;16357;52.188;7.838;2022-07-22T05:57:47;101365.31;;;19.93;61.30
29371;BME280;16357;52.188;7.838;2022-07-22T06:00:13;101373.47;;;20.00;60.94
29371;BME280;16357;52.188;7.838;2022-07-22T06:02:40;101381.06;;;20.05;60.63
29371;BME280;16357;52.188;7.838;2022-07-22T06:05:07;101378.56;;;20.10;60.79
29371;BME280;16357;52.188;7.838;2022-07-22T06:07:34;101378.78;;;20.15;60.08
29371;BME280;16357;52.188;7.838;2022-07-22T06:10:00;101379.84;;;20.21;60.44
29371;BME280;16357;52.188;7.838;2022-07-22T06:12:27;101375.66;;;20.25;60.27
29371;BME280;16357;52.188;7.838;2022-07-22T06:14:53;101386.59;;;20.31;60.17
29371;BME280;16357;52.188;7.838;2022-07-22T06:17:20;101385.75;;;20.37;60.04
29371;BME280;16357;52.188;7.838;2022-07-22T06:19:46;101383.06;;;20.44;59.30
29371;BME280;16357;52.188;7.838;2022-07-22T06:22:13;101379.50;;;20.50;58.78
29371;BME280;16357;52.188;7.838;2022-07-22T06:24:39;101384.19;;;20.56;58.37
29371;BME280;16357;52.188;7.838;2022-07-22T06:27:06;101381.66;;;20.61;58.09
29371;BME280;16357;52.188;7.838;2022-07-22T06:29:32;101386.28;;;20.68;57.79
29371;BME280;16357;52.188;7.838;2022-07-22T06:31:59;101379.16;;;20.73;57.89
29371;BME280;16357;52.188;7.838;2022-07-22T06:34:25;101378.31;;;20.79;57.96
29371;BME280;16357;52.188;7.838;2022-07-22T06:36:52;101377.50;;;20.86;57.97
29371;BME280;16357;52.188;7.838;2022-07-22T06:39:18;101381.28;;;20.91;57.61
29371;BME280;16357;52.188;7.838;2022-07-22T06:41:45;101384.84;;;20.98;57.46
29371;BME280;16357;52.188;7.838;2022-07-22T06:44:11;101385.03;;;21.03;57.59
29371;BME280;16357;52.188;7.838;2022-07-22T06:46:38;101384.22;;;21.10;57.28
29371;BME280;16357;52.188;7.838;2022-07-22T06:49:06;101381.72;;;21.15;56.59
29371;BME280;16357;52.188;7.838;2022-07-22T06:51:38;101380.84;;;21.21;55.99
29371;BME280;16357;52.188;7.838;2022-07-22T06:54:04;101389.25;;;21.26;55.25
29371;BME280;16357;52.188;7.838;2022-07-22T06:56:31;101369.06;;;21.27;55.34
29371;BME280;16357;52.188;7.838;2022-07-22T06:58:57;101372.44;;;21.29;55.44
29371;BME280;16357;52.188;7.838;2022-07-22T07:01:28;101365.28;;;21.35;54.96
29371;BME280;16357;52.188;7.838;2022-07-22T07:03:55;101362.59;;;21.41;54.32
29371;BME280;16357;52.188;7.838;2022-07-22T07:06:21;101368.25;;;21.46;54.16
29371;BME280;16357;52.188;7.838;2022-07-22T07:08:48;101367.41;;;21.53;54.09
29371;BME280;16357;52.188;7.838;2022-07-22T07:11:14;101356.88;;;21.56;53.83
29371;BME280;16357;52.188;7.838;2022-07-22T07:13:41;101366.53;;;21.59;53.23
29371;BME280;16357;52.188;7.838;2022-07-22T07:16:07;101361.94;;;21.59;53.48
29371;BME280;16357;52.188;7.838;2022-07-22T07:18:34;101355.41;;;21.60;53.40
29371;BME280;16357;52.188;7.838;2022-07-22T07:21:01;101360.22;;;21.65;52.89
29371;BME280;16357;52.188;7.838;2022-07-22T07:23:27;101361.06;;;21.65;52.89
29371;BME280;16357;52.188;7.838;2022-07-22T07:25:54;101353.91;;;21.71;52.91
29371;BME280;16357;52.188;7.838;2022-07-22T07:28:20;101353.47;;;21.74;52.48
29371;BME280;16357;52.188;7.838;2022-07-22T07:30:48;101354.72;;;21.78;52.87
29371;BME280;16357;52.188;7.838;2022-07-22T07:33:15;101356.81;;;21.83;52.99
29371;BME280;16357;52.188;7.838;2022-07-22T07:35:41;101350.47;;;21.89;52.94
29371;BME280;16357;52.188;7.838;2022-07-22T07:38:08;101354.44;;;21.93;52.81
29371;BME280;16357;52.188;7.838;2022-07-22T07:40:34;101354.63;;;21.98;52.82
29371;BME280;16357;52.188;7.838;2022-07-22T07:43:01;101348.53;;;22.03;52.21
29371;BME280;16357;52.188;7.838;2022-07-22T07:45:30;101354.16;;;22.08;51.89
29371;BME280;16357;52.188;7.838;2022-07-22T07:47:57;101353.53;;;22.12;51.91
29371;BME280;16357;52.188;7.838;2022-07-22T07:50:24;101358.56;;;22.16;51.44
29371;BME280;16357;52.188;7.838;2022-07-22T07:52:51;101352.88;;;22.17;51.26
29371;BME280;16357;52.188;7.838;2022-07-22T07:55:19;101359.59;;;22.21;51.65
29371;BME280;16357;52.188;7.838;2022-07-22T07:57:47;101362.97;;;22.23;51.04
29371;BME280;16357;52.188;7.838;2022-07-22T08:00:19;101365.03;;;22.28;50.62
29371;BME280;16357;52.188;7.838;2022-07-22T08:02:47;101360.63;;;22.27;50.40
29371;BME280;16357;52.188;7.838;2022-07-22T08:05:13;101355.38;;;22.25;50.00
29371;BME280;16357;52.188;7.838;2022-07-22T08:07:41;101352.03;;;22.23;50.13
29371;BME280;16357;52.188;7.838;2022-07-22T08:10:08;101366.75;;;22.22;49.89
29371;BME280;16357;52.188;7.838;2022-07-22T08:12:56;101357.94;;;22.20;50.30
29371;BME280;16357;52.188;7.838;2022-07-22T08:15:44;101361.28;;;22.22;50.39
29371;BME280;16357;52.188;7.838;2022-07-22T08:18:12;101361.88;;;22.24;49.68
29371;BME280;16357;52.188;7.838;2022-07-22T08:20:39;101358.13;;;22.25;50.00
29371;BME280;16357;52.188;7.838;2022-07-22T08:23:05;101362.50;;;22.26;49.55
29371;BME280;16357;52.188;7.838;2022-07-22T08:25:32;101355.97;;;22.27;49.75
29371;BME280;16357;52.188;7.838;2022-07-22T08:27:59;101357.22;;;22.31;49.10
29371;BME280;16357;52.188;7.838;2022-07-22T08:30:25;101366.69;;;22.35;48.89
29371;BME280;16357;52.188;7.838;2022-07-22T08:32:56;101361.38;;;22.41;48.52
29371;BME280;16357;52.188;7.838;2022-07-22T08:35:22;101358.22;;;22.44;48.22
29371;BME280;16357;52.188;7.838;2022-07-22T08:37:49;101357.78;;;22.47;48.87
29371;BME280;16357;52.188;7.838;2022-07-22T08:40:17;101361.72;;;22.51;48.90
29371;BME280;16357;52.188;7.838;2022-07-22T08:42:45;101361.06;;;22.55;48.64
29371;BME280;16357;52.188;7.838;2022-07-22T08:45:12;101361.47;;;22.59;48.37
29371;BME280;16357;52.188;7.838;2022-07-22T08:47:45;101360.81;;;22.64;48.90
29371;BME280;16357;52.188;7.838;2022-07-22T08:50:12;101355.50;;;22.69;48.61
29371;BME280;16357;52.188;7.838;2022-07-22T08:52:39;101356.13;;;22.71;48.17
29371;BME280;16357;52.188;7.838;2022-07-22T08:55:07;101359.25;;;22.74;47.90
29371;BME280;16357;52.188;7.838;2022-07-22T08:57:34;101366.41;;;22.75;47.97
29371;BME280;16357;52.188;7.838;2022-07-22T09:00:09;101363.69;;;22.75;48.40
29371;BME280;16357;52.188;7.838;2022-07-22T09:02:38;101368.53;;;22.73;48.19
29371;BME280;16357;52.188;7.838;2022-07-22T09:05:07;101372.34;;;22.72;48.19
29371;BME280;16357;52.188;7.838;2022-07-22T09:07:58;101365.78;;;22.73;47.80
29371;BME280;16357;52.188;7.838;2022-07-22T09:10:31;101376.13;;;22.71;47.79
29371;BME280;16357;52.188;7.838;2022-07-22T09:13:00;101379.91;;;22.70;47.94
29371;BME280;16357;52.188;7.838;2022-07-22T09:15:33;101376.13;;;22.71;48.10
29371;BME280;16357;52.188;7.838;2022-07-22T09:18:04;101367.91;;;22.71;47.92
29371;BME280;16357;52.188;7.838;2022-07-22T09:20:34;101370.88;;;22.70;47.66
29371;BME280;16357;52.188;7.838;2022-07-22T09:23:04;101362.44;;;22.71;47.71
29371;BME280;16357;52.188;7.838;2022-07-22T09:25:36;101371.47;;;22.72;48.31
29371;BME280;16357;52.188;7.838;2022-07-22T09:33:09;101378.91;;;22.90;47.12
29371;BME280;16357;52.188;7.838;2022-07-22T09:35:37;101374.44;;;22.95;47.14
29371;BME280;16357;52.188;7.838;2022-07-22T09:38:14;101382.25;;;22.98;47.35
29371;BME280;16357;52.188;7.838;2022-07-22T09:40:46;101370.00;;;23.01;47.47
29371;BME280;16357;52.188;7.838;2022-07-22T09:43:18;101376.72;;;23.05;47.32
29371;BME280;16357;52.188;7.838;2022-07-22T09:45:50;101377.97;;;23.09;47.62
29371;BME280;16357;52.188;7.838;2022-07-22T09:48:19;101368.03;;;23.15;47.37
29371;BME280;16357;52.188;7.838;2022-07-22T09:50:48;101378.28;;;23.19;46.58
29371;BME280;16357;52.188;7.838;2022-07-22T09:53:17;101369.84;;;23.21;46.73
29371;BME280;16357;52.188;7.838;2022-07-22T09:55:44;101366.91;;;23.22;46.50
29371;BME280;16357;52.188;7.838;2022-07-22T09:58:11;101366.91;;;23.22;46.52
29371;BME280;16357;52.188;7.838;2022-07-22T10:00:40;101362.47;;;23.21;46.15
29371;BME280;16357;52.188;7.838;2022-07-22T10:03:17;101367.47;;;23.25;46.86
29371;BME280;16357;52.188;7.838;2022-07-22T10:05:44;101358.84;;;23.28;46.27
29371;BME280;16357;52.188;7.838;2022-07-22T10:08:11;101370.38;;;23.30;46.03
29371;BME280;16357;52.188;7.838;2022-07-22T10:10:38;101363.88;;;23.31;45.97
29371;BME280;16357;52.188;7.838;2022-07-22T10:13:07;101369.34;;;23.31;45.54
29371;BME280;16357;52.188;7.838;2022-07-22T10:15:35;101370.38;;;23.30;45.41
29371;BME280;16357;52.188;7.838;2022-07-22T10:18:05;101373.13;;;23.30;45.86
29371;BME280;16357;52.188;7.838;2022-07-22T10:20:34;101368.72;;;23.29;45.71
29371;BME280;16357;52.188;7.838;2022-07-22T10:23:11;101366.59;;;23.31;46.12
29371;BME280;16357;52.188;7.838;2022-07-22T10:26:10;101374.34;;;23.34;46.27
29371;BME280;16357;52.188;7.838;2022-07-22T10:28:37;101370.09;;;23.38;45.94
29371;BME280;16357;52.188;7.838;2022-07-22T10:31:22;101366.22;;;23.45;46.53
29371;BME280;16357;52.188;7.838;2022-07-22T10:33:52;101370.34;;;23.55;45.76
29371;BME280;16357;52.188;7.838;2022-07-22T10:36:33;101366.84;;;23.66;45.43
29371;BME280;16357;52.188;7.838;2022-07-22T10:39:03;101359.19;;;23.75;45.33
29371;BME280;16357;52.188;7.838;2022-07-22T10:41:37;101359.28;;;23.86;45.48
29371;BME280;16357;52.188;7.838;2022-07-22T10:44:04;101356.00;;;23.96;44.60
29371;BME280;16357;52.188;7.838;2022-07-22T10:46:57;101359.63;;;24.08;44.92
29371;BME280;16357;52.188;7.838;2022-07-22T10:49:27;101357.84;;;24.14;43.92
29371;BME280;16357;52.188;7.838;2022-07-22T10:52:12;101363.13;;;24.16;44.12
29371;BME280;16357;52.188;7.838;2022-07-22T10:55:16;101359.53;;;24.15;44.04
29371;BME280;16357;52.188;7.838;2022-07-22T10:57:44;101356.19;;;24.13;43.25
29371;BME280;16357;52.188;7.838;2022-07-22T11:00:10;101353.22;;;24.15;43.37
29371;BME280;16357;52.188;7.838;2022-07-22T11:02:38;101352.38;;;24.14;43.45
29371;BME280;16357;52.188;7.838;2022-07-22T11:05:05;101347.28;;;24.18;43.10
29371;BME280;16357;52.188;7.838;2022-07-22T11:07:32;101344.91;;;24.21;43.55
29371;BME280;16357;52.188;7.838;2022-07-22T11:12:45;101333.84;;;24.28;42.84
29371;BME280;16357;52.188;7.838;2022-07-22T11:15:12;101337.78;;;24.32;42.92
29371;BME280;16357;52.188;7.838;2022-07-22T11:17:39;101339.81;;;24.37;42.79
29371;BME280;16357;52.188;7.838;2022-07-22T11:20:11;101339.72;;;24.43;43.53
29371;BME280;16357;52.188;7.838;2022-07-22T11:22:39;101345.38;;;24.48;43.02
29371;BME280;16357;52.188;7.838;2022-07-22T11:25:07;101350.97;;;24.53;42.41
29371;BME280;16357;52.188;7.838;2022-07-22T11:27:35;101335.75;;;24.58;42.55
29371;BME280;16357;52.188;7.838;2022-07-22T11:30:02;101332.31;;;24.62;42.38
29371;BME280;16357;52.188;7.838;2022-07-22T11:32:30;101329.44;;;24.69;42.65
29371;BME280;16357;52.188;7.838;2022-07-22T11:34:58;101323.59;;;24.77;42.36
29371;BME280;16357;52.188;7.838;2022-07-22T11:37:27;101310.72;;;24.89;42.62
29371;BME280;16357;52.188;7.838;2022-07-22T11:40:03;101309.41;;;25.04;42.40
29371;BME280;16357;52.188;7.838;2022-07-22T11:42:32;101299.50;;;25.14;41.48
29371;BME280;16357;52.188;7.838;2022-07-22T11:44:59;101303.47;;;25.18;41.10
29371;BME280;16357;52.188;7.838;2022-07-22T11:47:25;101316.59;;;25.16;41.30
29371;BME280;16357;52.188;7.838;2022-07-22T11:49:52;101310.47;;;25.14;40.83
29371;BME280;16357;52.188;7.838;2022-07-22T11:52:18;101312.88;;;25.11;41.53
29371;BME280;16357;52.188;7.838;2022-07-22T11:54:45;101318.97;;;25.13;41.61
29371;BME280;16357;52.188;7.838;2022-07-22T11:57:13;101328.41;;;25.17;41.37
29371;BME280;16357;52.188;7.838;2022-07-22T11:59:40;101323.66;;;25.24;41.27
29371;BME280;16357;52.188;7.838;2022-07-22T12:02:07;101326.50;;;25.29;41.22
29371;BME280;16357;52.188;7.838;2022-07-22T12:04:36;101316.25;;;25.36;40.73
29371;BME280;16357;52.188;7.838;2022-07-22T12:07:04;101323.78;;;25.41;40.90
29371;BME280;16357;52.188;7.838;2022-07-22T12:09:34;101316.34;;;25.42;40.15
29371;BME280;16357;52.188;7.838;2022-07-22T12:12:03;101313.84;;;25.40;40.22
29371;BME280;16357;52.188;7.838;2022-07-22T12:14:32;101317.66;;;25.39;39.82
29371;BME280;16357;52.188;7.838;2022-07-22T12:19:28;101305.97;;;25.32;39.95
29371;BME280;16357;52.188;7.838;2022-07-22T12:22:03;101316.00;;;25.26;40.61
29371;BME280;16357;52.188;7.838;2022-07-22T12:24:37;101319.47;;;25.22;39.91
29371;BME280;16357;52.188;7.838;2022-07-22T12:27:22;101310.47;;;25.14;40.46
29371;BME280;16357;52.188;7.838;2022-07-22T12:29:49;101301.91;;;25.11;40.87
29371;BME280;16357;52.188;7.838;2022-07-22T12:32:24;101295.09;;;25.13;40.53
29371;BME280;16357;52.188;7.838;2022-07-22T12:37:22;101298.72;;;25.26;40.58
29371;BME280;16357;52.188;7.838;2022-07-22T12:40:07;101290.31;;;25.32;40.46
29371;BME280;16357;52.188;7.838;2022-07-22T12:42:42;101290.44;;;25.37;40.03
29371;BME280;16357;52.188;7.838;2022-07-22T12:45:28;101280.97;;;25.45;40.88
29371;BME280;16357;52.188;7.838;2022-07-22T12:47:56;101275.59;;;25.50;39.47
29371;BME280;16357;52.188;7.838;2022-07-22T12:50:27;101286.34;;;25.52;39.59
29371;BME280;16357;52.188;7.838;2022-07-22T12:53:00;101275.81;;;25.49;39.70
29371;BME280;16357;52.188;7.838;2022-07-22T12:55:58;101282.56;;;25.41;40.08
29371;BME280;16357;52.188;7.838;2022-07-22T12:58:32;101283.78;;;25.33;40.38
29371;BME280;16357;52.188;7.838;2022-07-22T13:01:00;101289.72;;;25.30;40.83
29371;BME280;16357;52.188;7.838;2022-07-22T13:03:28;101286.75;;;25.32;40.34
29371;BME280;16357;52.188;7.838;2022-07-22T13:05:59;101290.44;;;25.37;40.46
29371;BME280;16357;52.188;7.838;2022-07-22T13:08:26;101278.94;;;25.40;40.38
29371;BME280;16357;52.188;7.838;2022-07-22T13:11:08;101279.66;;;25.48;39.95